createdAt,value
2022-11-30T00:04:59.238Z,57.03
2022-11-30T00:10:01.549Z,56.64
2022-11-30T00:15:03.590Z,56.82
2022-11-30T00:20:05.885Z,56.59
2022-11-30T00:25:08.392Z,56.45
2022-11-30T00:30:10.466Z,56.99
2022-11-30T00:35:12.219Z,56.74
2022-11-30T00:40:14.772Z,56.96
2022-11-30T00:45:16.398Z,56.92
2022-11-30T00:50:17.962Z,57.21
2022-11-30T00:55:19.548Z,56.70
2022-11-30T01:00:21.181Z,57.02
2022-11-30T01:05:22.801Z,56.96
2022-11-30T01:10:24.364Z,57.16
2022-11-30T01:15:26.083Z,57.43
2022-11-30T01:20:27.842Z,57.24
2022-11-30T01:25:29.624Z,57.51
2022-11-30T01:30:31.419Z,57.67
2022-11-30T01:35:33.212Z,57.15
2022-11-30T01:40:34.923Z,57.06
2022-11-30T01:45:36.547Z,57.21
2022-11-30T01:50:38.349Z,57.09
2022-11-30T01:55:42.763Z,57.16
2022-11-30T02:00:47.162Z,57.38
2022-11-30T02:05:49.177Z,57.25
2022-11-30T02:10:54.359Z,57.45
2022-11-30T02:16:22.219Z,56.90
2022-11-30T02:21:59.835Z,57.18
2022-11-30T02:27:22.150Z,57.14
2022-11-30T02:32:39.928Z,57.04
2022-11-30T02:37:42.040Z,56.85
2022-11-30T02:42:43.721Z,56.84
2022-11-30T02:48:09.832Z,56.93
2022-11-30T02:53:11.808Z,56.83
2022-11-30T02:58:16.857Z,56.68
2022-11-30T03:03:18.562Z,56.68
2022-11-30T03:08:20.208Z,56.76
2022-11-30T03:13:22.954Z,56.70
2022-11-30T03:18:24.605Z,56.55
2022-11-30T03:23:26.631Z,56.53
2022-11-30T03:28:28.811Z,56.55
2022-11-30T03:33:30.602Z,56.80
2022-11-30T03:38:32.588Z,56.87
2022-11-30T03:43:34.409Z,56.89
2022-11-30T03:48:36.492Z,57.32
2022-11-30T03:53:38.875Z,57.10
2022-11-30T03:58:40.550Z,57.68
2022-11-30T04:03:43.282Z,57.33
2022-11-30T04:08:45.164Z,57.45
2022-11-30T04:13:46.786Z,57.20
2022-11-30T04:18:48.693Z,57.28
2022-11-30T04:23:50.402Z,57.48
2022-11-30T04:28:51.975Z,57.56
2022-11-30T04:33:54.589Z,57.08
2022-11-30T04:38:56.238Z,57.22
2022-11-30T04:43:57.813Z,57.30
2022-11-30T04:48:59.363Z,57.32
2022-11-30T04:54:00.934Z,57.04
2022-11-30T04:59:03.043Z,57.00
2022-11-30T05:04:04.733Z,56.87
2022-11-30T05:09:06.502Z,56.92
2022-11-30T05:14:08.093Z,57.09
2022-11-30T05:19:09.970Z,57.08
2022-11-30T05:24:11.710Z,56.85
2022-11-30T05:29:13.314Z,56.75
2022-11-30T05:34:14.977Z,56.92
2022-11-30T05:39:16.542Z,56.75
2022-11-30T05:44:18.068Z,56.39
2022-11-30T05:49:19.639Z,56.14
2022-11-30T05:54:22.266Z,56.04
2022-11-30T05:59:23.919Z,56.32
2022-11-30T06:04:25.453Z,56.06
2022-11-30T06:09:27.129Z,55.85
2022-11-30T06:14:28.674Z,55.83
2022-11-30T06:19:30.243Z,55.98
2022-11-30T06:24:31.792Z,55.76
2022-11-30T06:29:33.371Z,55.82
2022-11-30T06:34:34.879Z,55.80
2022-11-30T06:40:04.906Z,55.77
2022-11-30T06:44:58.353Z,55.73
2022-11-30T06:49:59.910Z,55.83
2022-11-30T06:55:01.548Z,56.06
2022-11-30T07:00:04.558Z,55.51
2022-11-30T07:05:06.278Z,55.96
2022-11-30T07:10:08.598Z,55.89
2022-11-30T07:15:10.894Z,55.59
2022-11-30T07:20:12.643Z,55.54
2022-11-30T07:25:32.879Z,55.87
2022-11-30T07:30:34.965Z,55.60
2022-11-30T07:35:36.500Z,55.49
2022-11-30T07:40:38.090Z,55.38
2022-11-30T07:45:39.726Z,55.64
2022-11-30T07:50:41.286Z,55.48
2022-11-30T07:55:43.639Z,55.87
2022-11-30T08:00:45.338Z,55.55
2022-11-30T08:05:46.874Z,55.81
2022-11-30T08:10:48.406Z,55.62
2022-11-30T08:15:49.925Z,55.69
2022-11-30T08:20:57.487Z,55.55
2022-11-30T08:26:03.454Z,55.60
2022-11-30T08:31:09.028Z,55.63
2022-11-30T08:36:15.832Z,55.61
2022-11-30T08:41:19.957Z,55.41
2022-11-30T08:52:15.822Z,55.40
2022-11-30T08:57:06.870Z,55.30
2022-11-30T09:02:10.839Z,55.62
2022-11-30T09:07:12.687Z,55.79
2022-11-30T09:12:14.262Z,55.59
2022-11-30T09:17:15.802Z,55.97
2022-11-30T09:22:18.340Z,56.03
2022-11-30T09:27:20.348Z,55.59
2022-11-30T09:32:21.900Z,55.94
2022-11-30T09:37:23.729Z,55.73
2022-11-30T09:42:38.732Z,55.66
2022-11-30T09:47:47.860Z,55.84
2022-11-30T09:52:56.943Z,55.75
2022-11-30T09:58:02.010Z,56.12
2022-11-30T10:03:06.216Z,55.92
2022-11-30T10:08:19.326Z,55.53
2022-11-30T10:13:29.998Z,55.64
2022-11-30T10:18:48.369Z,56.00
2022-11-30T10:24:34.427Z,55.40
2022-11-30T10:29:39.767Z,55.81
2022-11-30T10:34:44.247Z,55.54
2022-11-30T10:40:05.826Z,55.23
2022-11-30T10:45:13.209Z,55.28
2022-11-30T10:50:17.314Z,55.53
2022-11-30T10:55:23.070Z,55.28
2022-11-30T11:00:24.889Z,55.29
2022-11-30T11:05:28.890Z,55.26
2022-11-30T11:10:37.210Z,55.31
2022-11-30T11:15:38.812Z,55.26
2022-11-30T11:20:43.260Z,55.43
2022-11-30T11:25:53.099Z,54.99
2022-11-30T11:30:56.971Z,55.34
2022-11-30T11:36:07.591Z,55.57
2022-11-30T11:41:27.158Z,55.27
2022-11-30T11:46:30.346Z,55.40
2022-11-30T11:51:35.059Z,55.74
2022-11-30T11:56:37.338Z,55.38
2022-11-30T12:01:50.166Z,55.60
2022-11-30T12:06:54.079Z,55.10
2022-11-30T12:11:55.783Z,55.31
2022-11-30T12:17:09.482Z,55.32
2022-11-30T12:22:45.115Z,55.42
2022-11-30T12:28:07.855Z,55.70
2022-11-30T12:33:25.229Z,55.62
2022-11-30T12:39:04.137Z,55.33
2022-11-30T12:44:28.961Z,55.43
2022-11-30T12:49:38.964Z,55.13
2022-11-30T12:54:55.699Z,55.07
2022-11-30T13:00:10.747Z,55.12
2022-11-30T13:05:30.492Z,54.79
2022-11-30T13:10:42.762Z,55.04
2022-11-30T13:15:46.022Z,55.15
2022-11-30T13:21:21.197Z,54.78
2022-11-30T13:26:37.458Z,54.71
2022-11-30T13:32:05.295Z,54.72
2022-11-30T13:37:12.703Z,54.62
2022-11-30T13:42:36.812Z,54.74
2022-11-30T13:47:49.000Z,54.72
2022-11-30T13:53:02.721Z,54.71
2022-11-30T13:58:09.736Z,54.48
2022-11-30T14:03:22.959Z,54.44
2022-11-30T14:08:24.406Z,54.43
2022-11-30T14:13:31.468Z,55.07
2022-11-30T14:18:39.302Z,54.86
2022-11-30T14:23:50.376Z,55.32
2022-11-30T14:29:03.373Z,54.92
2022-11-30T14:34:21.885Z,54.65
2022-11-30T14:39:35.039Z,54.51
2022-11-30T14:44:40.531Z,54.90
2022-11-30T14:49:52.288Z,54.58
2022-11-30T14:55:04.743Z,54.62
2022-11-30T15:00:07.013Z,54.93
2022-11-30T15:05:16.028Z,55.27
2022-11-30T15:10:29.809Z,54.71
2022-11-30T15:15:31.510Z,55.21
2022-11-30T15:20:44.249Z,54.94
2022-11-30T15:25:48.470Z,55.16
2022-11-30T15:30:55.314Z,55.15
2022-11-30T15:36:16.267Z,54.46
2022-11-30T15:41:22.273Z,54.93
2022-11-30T15:46:32.060Z,54.24
2022-11-30T15:51:39.196Z,54.43
2022-11-30T15:56:40.892Z,54.72
2022-11-30T16:02:14.586Z,54.69
2022-11-30T16:07:17.995Z,54.74
2022-11-30T16:12:29.858Z,55.21
2022-11-30T16:17:32.685Z,55.15
2022-11-30T16:22:35.354Z,55.06
2022-11-30T16:27:37.218Z,55.12
2022-11-30T16:32:38.774Z,55.82
2022-11-30T16:37:40.568Z,55.90
2022-11-30T16:42:42.187Z,55.99
2022-11-30T16:47:44.023Z,55.17
2022-11-30T16:52:46.131Z,55.51
2022-11-30T16:57:48.983Z,55.17
2022-11-30T17:02:58.156Z,55.59
2022-11-30T17:07:59.876Z,55.53
2022-11-30T17:13:01.511Z,55.38
2022-11-30T17:18:03.030Z,55.52
2022-11-30T17:23:06.378Z,55.84
2022-11-30T17:28:07.947Z,55.56
2022-11-30T17:33:09.438Z,55.79
2022-11-30T17:38:10.992Z,55.44
2022-11-30T17:43:12.657Z,55.48
2022-11-30T17:48:15.967Z,55.09
2022-11-30T17:53:18.416Z,55.37
2022-11-30T17:58:20.195Z,55.69
2022-11-30T18:03:21.829Z,55.26
2022-11-30T18:08:23.437Z,55.25
2022-11-30T18:13:25.297Z,55.26
2022-11-30T18:18:27.072Z,55.09
2022-11-30T18:23:28.603Z,55.02
2022-11-30T18:28:30.187Z,55.15
2022-11-30T18:33:32.270Z,55.03
2022-11-30T18:38:37.996Z,55.23
2022-11-30T18:43:40.209Z,55.02
2022-11-30T18:48:41.999Z,55.11
2022-11-30T18:53:44.075Z,55.25
2022-11-30T18:58:47.483Z,55.88
2022-11-30T19:03:51.718Z,55.80
2022-11-30T19:08:53.234Z,55.45
2022-11-30T19:13:56.937Z,55.81
2022-11-30T19:19:07.187Z,55.56
2022-11-30T19:24:09.439Z,55.68
2022-11-30T19:29:11.719Z,55.82
2022-11-30T19:34:13.962Z,55.90
2022-11-30T19:39:15.576Z,55.93
2022-11-30T19:44:17.226Z,55.77
2022-11-30T19:49:18.790Z,55.32
2022-11-30T19:54:20.451Z,55.77
2022-11-30T19:59:22.035Z,56.21
2022-11-30T20:04:24.035Z,55.74
2022-11-30T20:09:25.618Z,55.75
2022-11-30T20:14:27.273Z,56.17
2022-11-30T20:19:28.843Z,56.11
2022-11-30T20:24:30.742Z,55.60
2022-11-30T20:29:32.284Z,55.97
2022-11-30T20:34:39.724Z,55.69
2022-11-30T20:39:46.209Z,56.30
2022-11-30T20:44:48.240Z,56.17
2022-11-30T20:49:50.336Z,55.73
2022-11-30T20:54:51.903Z,56.25
2022-11-30T20:59:53.701Z,56.06
2022-11-30T21:04:55.304Z,55.70
2022-11-30T21:09:58.017Z,55.90
2022-11-30T21:14:59.581Z,56.32
2022-11-30T21:20:01.675Z,55.73
2022-11-30T21:25:03.387Z,56.14
2022-11-30T21:30:05.960Z,56.28
2022-11-30T21:35:08.308Z,56.82
2022-11-30T21:40:10.880Z,56.07
2022-11-30T21:45:12.499Z,56.27
2022-11-30T21:50:14.088Z,56.27
2022-11-30T21:55:16.013Z,56.80
2022-11-30T22:00:18.233Z,56.93
2022-11-30T22:05:19.898Z,56.80
2022-11-30T22:10:21.505Z,56.08
2022-11-30T22:15:23.066Z,56.29
2022-11-30T22:20:24.591Z,56.47
2022-11-30T22:25:26.189Z,56.41
2022-11-30T22:30:27.742Z,56.00
2022-11-30T22:35:29.253Z,56.26
2022-11-30T22:40:30.819Z,55.87
2022-11-30T22:45:33.779Z,56.12
2022-11-30T22:50:35.435Z,56.00
2022-11-30T22:55:37.169Z,56.34
2022-11-30T23:00:38.874Z,55.78
2022-11-30T23:05:40.507Z,55.83
2022-11-30T23:10:42.042Z,55.61
2022-11-30T23:15:43.713Z,56.11
2022-11-30T23:20:45.373Z,55.60
2022-11-30T23:25:48.200Z,55.47
2022-11-30T23:30:49.743Z,55.57
2022-11-30T23:35:51.386Z,55.79
2022-11-30T23:40:52.932Z,56.06
2022-11-30T23:45:54.517Z,55.58
2022-11-30T23:50:56.140Z,55.99
2022-11-30T23:56:02.693Z,55.47
